sensor_id;sensor_type;location;lat;lon;timestamp;P1;durP1;ratioP1;P2;durP2;ratioP2
4432;SDS011;2229;48.708;9.706;2023-06-10T00:01:47;3.60;;;2.30;;
4432;SDS011;2229;48.708;9.706;2023-06-10T00:04:14;4.03;;;2.20;;
4432;SDS011;2229;48.708;9.706;2023-06-10T00:06:42;4.00;;;2.47;;
4432;SDS011;2229;48.708;9.706;2023-06-10T00:09:10;4.80;;;2.43;;
4432;SDS011;2229;48.708;9.706;2023-06-10T00:11:39;4.10;;;2.30;;
4432;SDS011;2229;48.708;9.706;2023-06-10T00:14:07;4.57;;;2.37;;
4432;SDS011;2229;48.708;9.706;2023-06-10T00:16:36;4.53;;;2.60;;
4432;SDS011;2229;48.708;9.706;2023-06-10T00:19:04;5.00;;;2.57;;
4432;SDS011;2229;48.708;9.706;2023-06-10T00:21:32;4.30;;;2.37;;
4432;SDS011;2229;48.708;9.706;2023-06-10T00:24:03;3.20;;;2.73;;
4432;SDS011;2229;48.708;9.706;2023-06-10T00:26:31;3.80;;;2.20;;
4432;SDS011;2229;48.708;9.706;2023-06-10T00:28:59;3.70;;;2.13;;
4432;SDS011;2229;48.708;9.706;2023-06-10T00:31:27;5.10;;;2.67;;
4432;SDS011;2229;48.708;9.706;2023-06-10T00:33:55;4.83;;;2.57;;
4432;SDS011;2229;48.708;9.706;2023-06-10T00:36:24;4.90;;;2.60;;
4432;SDS011;2229;48.708;9.706;2023-06-10T00:38:51;5.83;;;2.73;;
4432;SDS011;2229;48.708;9.706;2023-06-10T00:41:18;5.50;;;2.77;;
4432;SDS011;2229;48.708;9.706;2023-06-10T00:43:46;3.80;;;1.93;;
4432;SDS011;2229;48.708;9.706;2023-06-10T00:46:13;4.70;;;3.20;;
4432;SDS011;2229;48.708;9.706;2023-06-10T00:48:42;3.10;;;2.07;;
4432;SDS011;2229;48.708;9.706;2023-06-10T00:51:12;3.20;;;2.03;;
4432;SDS011;2229;48.708;9.706;2023-06-10T00:53:41;6.00;;;2.80;;
4432;SDS011;2229;48.708;9.706;2023-06-10T00:56:08;5.07;;;3.03;;
4432;SDS011;2229;48.708;9.706;2023-06-10T00:58:37;9.70;;;3.10;;
4432;SDS011;2229;48.708;9.706;2023-06-10T01:01:04;4.60;;;2.40;;
4432;SDS011;2229;48.708;9.706;2023-06-10T01:03:32;4.30;;;2.53;;
4432;SDS011;2229;48.708;9.706;2023-06-10T01:06:04;3.53;;;2.47;;
4432;SDS011;2229;48.708;9.706;2023-06-10T01:08:39;3.50;;;2.33;;
4432;SDS011;2229;48.708;9.706;2023-06-10T01:11:15;3.40;;;2.10;;
4432;SDS011;2229;48.708;9.706;2023-06-10T01:13:47;5.30;;;2.70;;
4432;SDS011;2229;48.708;9.706;2023-06-10T01:16:17;5.40;;;2.83;;
4432;SDS011;2229;48.708;9.706;2023-06-10T01:18:47;5.10;;;2.53;;
4432;SDS011;2229;48.708;9.706;2023-06-10T01:21:19;3.53;;;2.10;;
4432;SDS011;2229;48.708;9.706;2023-06-10T01:23:50;4.80;;;2.20;;
4432;SDS011;2229;48.708;9.706;2023-06-10T01:26:18;4.30;;;2.57;;
4432;SDS011;2229;48.708;9.706;2023-06-10T01:28:53;4.70;;;2.33;;
4432;SDS011;2229;48.708;9.706;2023-06-10T01:31:28;4.03;;;2.53;;
4432;SDS011;2229;48.708;9.706;2023-06-10T01:34:05;4.53;;;2.37;;
4432;SDS011;2229;48.708;9.706;2023-06-10T01:36:37;6.50;;;2.83;;
4432;SDS011;2229;48.708;9.706;2023-06-10T01:39:07;3.93;;;2.40;;
4432;SDS011;2229;48.708;9.706;2023-06-10T01:41:36;4.77;;;2.10;;
4432;SDS011;2229;48.708;9.706;2023-06-10T01:44:05;5.50;;;2.17;;
4432;SDS011;2229;48.708;9.706;2023-06-10T01:46:32;3.40;;;1.70;;
4432;SDS011;2229;48.708;9.706;2023-06-10T01:49:00;3.03;;;1.93;;
4432;SDS011;2229;48.708;9.706;2023-06-10T01:51:27;5.80;;;2.77;;
4432;SDS011;2229;48.708;9.706;2023-06-10T01:53:57;4.10;;;2.20;;
4432;SDS011;2229;48.708;9.706;2023-06-10T01:56:24;3.70;;;1.93;;
4432;SDS011;2229;48.708;9.706;2023-06-10T01:58:51;5.30;;;2.30;;
4432;SDS011;2229;48.708;9.706;2023-06-10T02:01:21;4.90;;;2.50;;
4432;SDS011;2229;48.708;9.706;2023-06-10T02:03:48;5.00;;;2.70;;
4432;SDS011;2229;48.708;9.706;2023-06-10T02:06:15;4.63;;;2.50;;
4432;SDS011;2229;48.708;9.706;2023-06-10T02:08:43;4.47;;;2.20;;
4432;SDS011;2229;48.708;9.706;2023-06-10T02:11:12;3.60;;;1.77;;
4432;SDS011;2229;48.708;9.706;2023-06-10T02:13:39;4.63;;;2.50;;
4432;SDS011;2229;48.708;9.706;2023-06-10T02:16:07;4.67;;;2.07;;
4432;SDS011;2229;48.708;9.706;2023-06-10T02:18:34;5.73;;;3.13;;
4432;SDS011;2229;48.708;9.706;2023-06-10T02:21:02;3.30;;;2.20;;
4432;SDS011;2229;48.708;9.706;2023-06-10T02:23:29;5.17;;;2.50;;
4432;SDS011;2229;48.708;9.706;2023-06-10T02:25:56;3.70;;;1.80;;
4432;SDS011;2229;48.708;9.706;2023-06-10T02:28:25;5.60;;;2.57;;
4432;SDS011;2229;48.708;9.706;2023-06-10T02:30:53;4.70;;;2.20;;
4432;SDS011;2229;48.708;9.706;2023-06-10T02:33:20;3.33;;;2.53;;
4432;SDS011;2229;48.708;9.706;2023-06-10T02:35:49;5.33;;;2.17;;
4432;SDS011;2229;48.708;9.706;2023-06-10T02:38:16;5.10;;;2.13;;
4432;SDS011;2229;48.708;9.706;2023-06-10T02:40:43;5.47;;;2.07;;
4432;SDS011;2229;48.708;9.706;2023-06-10T02:43:12;4.13;;;2.20;;
4432;SDS011;2229;48.708;9.706;2023-06-10T02:45:41;3.50;;;1.87;;
4432;SDS011;2229;48.708;9.706;2023-06-10T02:48:09;4.33;;;2.23;;
4432;SDS011;2229;48.708;9.706;2023-06-10T02:50:36;5.17;;;2.70;;
4432;SDS011;2229;48.708;9.706;2023-06-10T02:53:24;2.17;;;1.63;;
4432;SDS011;2229;48.708;9.706;2023-06-10T02:55:57;3.67;;;2.00;;
4432;SDS011;2229;48.708;9.706;2023-06-10T02:58:25;4.20;;;2.17;;
4432;SDS011;2229;48.708;9.706;2023-06-10T03:00:55;2.73;;;1.30;;
4432;SDS011;2229;48.708;9.706;2023-06-10T03:03:23;3.67;;;2.00;;
4432;SDS011;2229;48.708;9.706;2023-06-10T03:06:00;4.43;;;2.20;;
4432;SDS011;2229;48.708;9.706;2023-06-10T03:08:28;3.17;;;1.80;;
4432;SDS011;2229;48.708;9.706;2023-06-10T03:10:58;4.93;;;2.47;;
4432;SDS011;2229;48.708;9.706;2023-06-10T03:13:26;3.43;;;2.23;;
4432;SDS011;2229;48.708;9.706;2023-06-10T03:15:54;4.30;;;2.50;;
4432;SDS011;2229;48.708;9.706;2023-06-10T03:18:25;5.93;;;1.83;;
4432;SDS011;2229;48.708;9.706;2023-06-10T03:20:53;3.40;;;2.00;;
4432;SDS011;2229;48.708;9.706;2023-06-10T03:23:22;4.97;;;2.30;;
4432;SDS011;2229;48.708;9.706;2023-06-10T03:25:49;5.57;;;3.20;;
4432;SDS011;2229;48.708;9.706;2023-06-10T03:28:18;3.33;;;2.07;;
4432;SDS011;2229;48.708;9.706;2023-06-10T03:30:46;3.13;;;1.90;;
4432;SDS011;2229;48.708;9.706;2023-06-10T03:33:15;3.27;;;2.07;;
4432;SDS011;2229;48.708;9.706;2023-06-10T03:35:43;3.70;;;2.20;;
4432;SDS011;2229;48.708;9.706;2023-06-10T03:38:12;3.10;;;2.00;;
4432;SDS011;2229;48.708;9.706;2023-06-10T03:40:39;3.60;;;2.07;;
4432;SDS011;2229;48.708;9.706;2023-06-10T03:43:07;3.83;;;1.87;;
4432;SDS011;2229;48.708;9.706;2023-06-10T03:45:35;2.43;;;1.43;;
4432;SDS011;2229;48.708;9.706;2023-06-10T03:48:02;3.17;;;1.60;;
4432;SDS011;2229;48.708;9.706;2023-06-10T03:50:40;3.77;;;2.20;;
4432;SDS011;2229;48.708;9.706;2023-06-10T03:53:07;3.20;;;1.90;;
4432;SDS011;2229;48.708;9.706;2023-06-10T03:55:35;4.00;;;2.10;;
4432;SDS011;2229;48.708;9.706;2023-06-10T03:58:04;3.80;;;2.17;;
4432;SDS011;2229;48.708;9.706;2023-06-10T04:00:31;2.70;;;1.83;;
4432;SDS011;2229;48.708;9.706;2023-06-10T04:03:06;2.53;;;1.37;;
4432;SDS011;2229;48.708;9.706;2023-06-10T04:05:39;4.40;;;1.83;;
4432;SDS011;2229;48.708;9.706;2023-06-10T04:08:08;4.70;;;2.13;;
4432;SDS011;2229;48.708;9.706;2023-06-10T04:10:35;4.10;;;2.20;;
4432;SDS011;2229;48.708;9.706;2023-06-10T04:13:02;10.90;;;4.57;;
4432;SDS011;2229;48.708;9.706;2023-06-10T04:15:35;11.63;;;4.60;;
4432;SDS011;2229;48.708;9.706;2023-06-10T04:18:06;21.17;;;7.07;;
4432;SDS011;2229;48.708;9.706;2023-06-10T04:20:34;19.70;;;8.17;;
4432;SDS011;2229;48.708;9.706;2023-06-10T04:23:02;21.37;;;8.80;;
4432;SDS011;2229;48.708;9.706;2023-06-10T04:25:30;20.90;;;7.70;;
4432;SDS011;2229;48.708;9.706;2023-06-10T04:27:58;12.50;;;6.03;;
4432;SDS011;2229;48.708;9.706;2023-06-10T04:30:25;12.90;;;5.43;;
4432;SDS011;2229;48.708;9.706;2023-06-10T04:32:53;6.83;;;4.10;;
4432;SDS011;2229;48.708;9.706;2023-06-10T04:35:21;4.80;;;2.07;;
4432;SDS011;2229;48.708;9.706;2023-06-10T04:37:48;5.77;;;2.70;;
4432;SDS011;2229;48.708;9.706;2023-06-10T04:40:17;5.20;;;2.07;;
4432;SDS011;2229;48.708;9.706;2023-06-10T04:42:46;2.53;;;1.43;;
4432;SDS011;2229;48.708;9.706;2023-06-10T04:45:13;5.60;;;2.27;;
4432;SDS011;2229;48.708;9.706;2023-06-10T04:47:41;3.80;;;2.00;;
4432;SDS011;2229;48.708;9.706;2023-06-10T04:50:10;3.93;;;2.13;;
4432;SDS011;2229;48.708;9.706;2023-06-10T04:52:37;3.37;;;1.67;;
4432;SDS011;2229;48.708;9.706;2023-06-10T04:55:07;3.57;;;2.03;;
4432;SDS011;2229;48.708;9.706;2023-06-10T04:57:37;9.40;;;2.40;;
4432;SDS011;2229;48.708;9.706;2023-06-10T05:00:05;4.67;;;1.70;;
4432;SDS011;2229;48.708;9.706;2023-06-10T05:02:34;3.83;;;1.63;;
4432;SDS011;2229;48.708;9.706;2023-06-10T05:05:01;6.37;;;1.80;;
4432;SDS011;2229;48.708;9.706;2023-06-10T05:07:34;3.60;;;1.83;;
4432;SDS011;2229;48.708;9.706;2023-06-10T05:10:03;3.20;;;1.60;;
4432;SDS011;2229;48.708;9.706;2023-06-10T05:12:30;3.27;;;1.73;;
4432;SDS011;2229;48.708;9.706;2023-06-10T05:15:00;4.60;;;1.90;;
4432;SDS011;2229;48.708;9.706;2023-06-10T05:17:28;5.10;;;2.60;;
4432;SDS011;2229;48.708;9.706;2023-06-10T05:19:55;2.53;;;1.63;;
4432;SDS011;2229;48.708;9.706;2023-06-10T05:22:22;3.17;;;1.60;;
4432;SDS011;2229;48.708;9.706;2023-06-10T05:24:50;5.17;;;3.70;;
4432;SDS011;2229;48.708;9.706;2023-06-10T05:27:17;3.90;;;2.20;;
4432;SDS011;2229;48.708;9.706;2023-06-10T05:29:45;3.13;;;1.60;;
4432;SDS011;2229;48.708;9.706;2023-06-10T05:32:13;3.50;;;1.87;;
4432;SDS011;2229;48.708;9.706;2023-06-10T05:34:40;3.70;;;1.90;;
4432;SDS011;2229;48.708;9.706;2023-06-10T05:37:08;4.90;;;2.10;;
4432;SDS011;2229;48.708;9.706;2023-06-10T05:39:35;5.50;;;2.60;;
4432;SDS011;2229;48.708;9.706;2023-06-10T05:42:04;6.53;;;2.10;;
4432;SDS011;2229;48.708;9.706;2023-06-10T05:44:32;3.70;;;2.17;;
4432;SDS011;2229;48.708;9.706;2023-06-10T05:47:00;4.53;;;2.00;;
4432;SDS011;2229;48.708;9.706;2023-06-10T05:49:28;3.37;;;2.30;;
4432;SDS011;2229;48.708;9.706;2023-06-10T05:51:56;4.80;;;3.10;;
4432;SDS011;2229;48.708;9.706;2023-06-10T05:54:24;4.97;;;2.80;;
4432;SDS011;2229;48.708;9.706;2023-06-10T05:56:51;5.17;;;2.87;;
4432;SDS011;2229;48.708;9.706;2023-06-10T05:59:19;4.50;;;2.67;;
4432;SDS011;2229;48.708;9.706;2023-06-10T06:01:48;10.50;;;2.83;;
4432;SDS011;2229;48.708;9.706;2023-06-10T06:04:16;4.97;;;2.30;;
4432;SDS011;2229;48.708;9.706;2023-06-10T06:06:44;5.67;;;3.50;;
4432;SDS011;2229;48.708;9.706;2023-06-10T06:09:12;5.00;;;2.80;;
4432;SDS011;2229;48.708;9.706;2023-06-10T06:11:39;4.10;;;2.77;;
4432;SDS011;2229;48.708;9.706;2023-06-10T06:14:06;4.00;;;2.30;;
4432;SDS011;2229;48.708;9.706;2023-06-10T06:16:33;3.57;;;2.00;;
4432;SDS011;2229;48.708;9.706;2023-06-10T06:19:00;4.13;;;2.63;;
4432;SDS011;2229;48.708;9.706;2023-06-10T06:21:28;6.43;;;2.67;;
4432;SDS011;2229;48.708;9.706;2023-06-10T06:23:57;5.83;;;3.07;;
4432;SDS011;2229;48.708;9.706;2023-06-10T06:26:25;5.90;;;2.30;;
4432;SDS011;2229;48.708;9.706;2023-06-10T06:28:52;4.13;;;2.40;;
4432;SDS011;2229;48.708;9.706;2023-06-10T06:31:19;4.20;;;2.43;;
4432;SDS011;2229;48.708;9.706;2023-06-10T06:33:47;5.87;;;2.60;;
4432;SDS011;2229;48.708;9.706;2023-06-10T06:36:14;5.83;;;3.50;;
4432;SDS011;2229;48.708;9.706;2023-06-10T06:38:41;3.40;;;2.03;;
4432;SDS011;2229;48.708;9.706;2023-06-10T06:41:10;5.10;;;2.10;;
4432;SDS011;2229;48.708;9.706;2023-06-10T06:43:37;7.97;;;1.97;;
4432;SDS011;2229;48.708;9.706;2023-06-10T06:46:23;3.30;;;1.30;;
4432;SDS011;2229;48.708;9.706;2023-06-10T06:48:50;5.40;;;2.30;;
4432;SDS011;2229;48.708;9.706;2023-06-10T06:51:17;4.43;;;2.33;;
4432;SDS011;2229;48.708;9.706;2023-06-10T06:53:45;5.80;;;2.67;;
4432;SDS011;2229;48.708;9.706;2023-06-10T06:56:13;5.10;;;2.17;;
4432;SDS011;2229;48.708;9.706;2023-06-10T06:58:41;5.67;;;2.47;;
4432;SDS011;2229;48.708;9.706;2023-06-10T07:01:08;4.43;;;2.30;;
4432;SDS011;2229;48.708;9.706;2023-06-10T07:03:35;3.07;;;1.90;;
4432;SDS011;2229;48.708;9.706;2023-06-10T07:06:02;4.93;;;2.77;;
4432;SDS011;2229;48.708;9.706;2023-06-10T07:08:31;4.80;;;2.00;;
4432;SDS011;2229;48.708;9.706;2023-06-10T07:10:59;4.33;;;2.10;;
4432;SDS011;2229;48.708;9.706;2023-06-10T07:13:27;3.43;;;1.87;;
4432;SDS011;2229;48.708;9.706;2023-06-10T07:15:54;5.60;;;2.47;;
4432;SDS011;2229;48.708;9.706;2023-06-10T07:18:22;2.50;;;1.50;;
4432;SDS011;2229;48.708;9.706;2023-06-10T07:20:49;4.27;;;2.00;;
4432;SDS011;2229;48.708;9.706;2023-06-10T07:23:17;3.70;;;2.30;;
4432;SDS011;2229;48.708;9.706;2023-06-10T07:25:44;5.73;;;2.40;;
4432;SDS011;2229;48.708;9.706;2023-06-10T07:28:11;4.43;;;2.43;;
4432;SDS011;2229;48.708;9.706;2023-06-10T07:30:40;4.30;;;2.27;;
4432;SDS011;2229;48.708;9.706;2023-06-10T07:33:07;3.17;;;2.30;;
4432;SDS011;2229;48.708;9.706;2023-06-10T07:35:35;3.77;;;1.67;;
4432;SDS011;2229;48.708;9.706;2023-06-10T07:38:03;3.43;;;1.90;;
4432;SDS011;2229;48.708;9.706;2023-06-10T07:40:30;3.10;;;2.23;;
4432;SDS011;2229;48.708;9.706;2023-06-10T07:42:57;5.83;;;2.07;;
4432;SDS011;2229;48.708;9.706;2023-06-10T07:45:25;3.20;;;2.27;;
4432;SDS011;2229;48.708;9.706;2023-06-10T07:47:54;4.40;;;2.70;;
4432;SDS011;2229;48.708;9.706;2023-06-10T07:50:22;5.07;;;2.43;;
4432;SDS011;2229;48.708;9.706;2023-06-10T07:52:49;3.40;;;2.33;;
4432;SDS011;2229;48.708;9.706;2023-06-10T07:55:16;4.73;;;2.60;;
4432;SDS011;2229;48.708;9.706;2023-06-10T07:57:44;3.83;;;2.13;;
4432;SDS011;2229;48.708;9.706;2023-06-10T08:00:11;3.20;;;2.10;;
4432;SDS011;2229;48.708;9.706;2023-06-10T08:02:39;3.03;;;1.63;;
4432;SDS011;2229;48.708;9.706;2023-06-10T08:05:08;2.83;;;1.50;;
4432;SDS011;2229;48.708;9.706;2023-06-10T08:07:35;3.77;;;2.07;;
4432;SDS011;2229;48.708;9.706;2023-06-10T08:10:02;3.33;;;2.17;;
4432;SDS011;2229;48.708;9.706;2023-06-10T08:12:30;3.70;;;2.23;;
4432;SDS011;2229;48.708;9.706;2023-06-10T08:14:59;5.90;;;2.30;;
4432;SDS011;2229;48.708;9.706;2023-06-10T08:17:27;3.90;;;2.10;;
4432;SDS011;2229;48.708;9.706;2023-06-10T08:19:55;3.10;;;2.17;;
4432;SDS011;2229;48.708;9.706;2023-06-10T08:22:23;4.67;;;2.43;;
4432;SDS011;2229;48.708;9.706;2023-06-10T08:24:52;10.27;;;2.30;;
4432;SDS011;2229;48.708;9.706;2023-06-10T08:27:19;2.17;;;1.40;;
4432;SDS011;2229;48.708;9.706;2023-06-10T08:29:47;4.77;;;2.20;;
4432;SDS011;2229;48.708;9.706;2023-06-10T08:32:14;4.53;;;2.23;;
4432;SDS011;2229;48.708;9.706;2023-06-10T08:34:41;5.70;;;2.37;;
4432;SDS011;2229;48.708;9.706;2023-06-10T08:37:08;2.70;;;1.43;;
4432;SDS011;2229;48.708;9.706;2023-06-10T08:39:38;2.40;;;1.47;;
4432;SDS011;2229;48.708;9.706;2023-06-10T08:42:09;3.20;;;2.00;;
4432;SDS011;2229;48.708;9.706;2023-06-10T08:44:41;5.10;;;2.20;;
4432;SDS011;2229;48.708;9.706;2023-06-10T08:47:11;3.30;;;2.07;;
4432;SDS011;2229;48.708;9.706;2023-06-10T08:49:41;5.27;;;1.63;;
4432;SDS011;2229;48.708;9.706;2023-06-10T08:52:11;3.97;;;2.10;;
4432;SDS011;2229;48.708;9.706;2023-06-10T08:54:46;3.60;;;1.73;;
4432;SDS011;2229;48.708;9.706;2023-06-10T08:57:17;2.67;;;1.83;;
4432;SDS011;2229;48.708;9.706;2023-06-10T08:59:47;3.17;;;1.47;;
4432;SDS011;2229;48.708;9.706;2023-06-10T09:02:14;2.43;;;1.67;;
4432;SDS011;2229;48.708;9.706;2023-06-10T09:04:45;3.73;;;1.93;;
4432;SDS011;2229;48.708;9.706;2023-06-10T09:07:13;4.10;;;2.17;;
4432;SDS011;2229;48.708;9.706;2023-06-10T09:09:41;3.43;;;1.80;;
4432;SDS011;2229;48.708;9.706;2023-06-10T09:12:11;3.37;;;1.93;;
4432;SDS011;2229;48.708;9.706;2023-06-10T09:14:41;2.37;;;1.77;;
4432;SDS011;2229;48.708;9.706;2023-06-10T09:17:08;4.70;;;3.17;;
4432;SDS011;2229;48.708;9.706;2023-06-10T09:19:36;3.87;;;2.17;;
4432;SDS011;2229;48.708;9.706;2023-06-10T09:22:07;4.90;;;1.90;;
4432;SDS011;2229;48.708;9.706;2023-06-10T09:24:34;3.20;;;1.97;;
4432;SDS011;2229;48.708;9.706;2023-06-10T09:27:04;3.70;;;2.13;;
4432;SDS011;2229;48.708;9.706;2023-06-10T09:29:32;3.20;;;2.17;;
4432;SDS011;2229;48.708;9.706;2023-06-10T09:32:12;3.30;;;1.83;;
4432;SDS011;2229;48.708;9.706;2023-06-10T09:34:39;2.53;;;1.40;;
4432;SDS011;2229;48.708;9.706;2023-06-10T09:37:06;2.63;;;1.93;;
4432;SDS011;2229;48.708;9.706;2023-06-10T09:39:38;3.23;;;1.63;;
4432;SDS011;2229;48.708;9.706;2023-06-10T09:42:16;3.50;;;2.10;;
4432;SDS011;2229;48.708;9.706;2023-06-10T09:44:48;3.27;;;2.07;;
4432;SDS011;2229;48.708;9.706;2023-06-10T09:47:19;2.90;;;2.03;;
4432;SDS011;2229;48.708;9.706;2023-06-10T09:49:46;3.77;;;2.63;;
4432;SDS011;2229;48.708;9.706;2023-06-10T09:52:14;2.27;;;1.60;;
4432;SDS011;2229;48.708;9.706;2023-06-10T09:54:47;3.40;;;2.10;;
4432;SDS011;2229;48.708;9.706;2023-06-10T09:57:14;4.13;;;1.93;;
4432;SDS011;2229;48.708;9.706;2023-06-10T09:59:45;4.17;;;2.40;;
4432;SDS011;2229;48.708;9.706;2023-06-10T10:02:13;4.93;;;2.70;;
4432;SDS011;2229;48.708;9.706;2023-06-10T10:04:42;3.53;;;2.10;;
4432;SDS011;2229;48.708;9.706;2023-06-10T10:07:09;3.00;;;1.80;;
4432;SDS011;2229;48.708;9.706;2023-06-10T10:09:37;4.60;;;2.40;;
4432;SDS011;2229;48.708;9.706;2023-06-10T10:12:05;4.00;;;2.20;;
4432;SDS011;2229;48.708;9.706;2023-06-10T10:14:38;2.70;;;2.00;;
4432;SDS011;2229;48.708;9.706;2023-06-10T10:17:07;3.97;;;2.43;;
4432;SDS011;2229;48.708;9.706;2023-06-10T10:19:39;3.10;;;1.87;;
4432;SDS011;2229;48.708;9.706;2023-06-10T10:22:15;2.80;;;1.97;;
4432;SDS011;2229;48.708;9.706;2023-06-10T10:24:46;3.33;;;2.10;;
4432;SDS011;2229;48.708;9.706;2023-06-10T10:27:17;2.93;;;2.03;;
4432;SDS011;2229;48.708;9.706;2023-06-10T10:29:49;8.20;;;1.70;;
4432;SDS011;2229;48.708;9.706;2023-06-10T10:32:18;3.27;;;1.87;;
4432;SDS011;2229;48.708;9.706;2023-06-10T10:34:53;2.90;;;1.80;;
4432;SDS011;2229;48.708;9.706;2023-06-10T10:37:31;4.50;;;2.30;;
4432;SDS011;2229;48.708;9.706;2023-06-10T10:39:59;4.87;;;2.37;;
4432;SDS011;2229;48.708;9.706;2023-06-10T10:42:26;2.20;;;1.60;;
4432;SDS011;2229;48.708;9.706;2023-06-10T10:44:56;2.27;;;1.27;;
4432;SDS011;2229;48.708;9.706;2023-06-10T10:47:25;3.37;;;1.77;;
4432;SDS011;2229;48.708;9.706;2023-06-10T10:49:54;2.57;;;1.77;;
4432;SDS011;2229;48.708;9.706;2023-06-10T10:52:24;3.50;;;2.10;;
4432;SDS011;2229;48.708;9.706;2023-06-10T10:54:52;4.87;;;1.93;;
4432;SDS011;2229;48.708;9.706;2023-06-10T10:57:20;2.30;;;1.90;;
4432;SDS011;2229;48.708;9.706;2023-06-10T10:59:54;3.30;;;1.60;;
4432;SDS011;2229;48.708;9.706;2023-06-10T11:02:35;2.80;;;1.77;;
4432;SDS011;2229;48.708;9.706;2023-06-10T11:05:05;3.30;;;2.10;;
4432;SDS011;2229;48.708;9.706;2023-06-10T11:07:34;2.73;;;1.60;;
4432;SDS011;2229;48.708;9.706;2023-06-10T11:10:03;3.80;;;2.17;;
4432;SDS011;2229;48.708;9.706;2023-06-10T11:12:49;2.60;;;1.40;;
4432;SDS011;2229;48.708;9.706;2023-06-10T11:15:20;3.13;;;1.60;;
4432;SDS011;2229;48.708;9.706;2023-06-10T11:20:44;3.40;;;1.70;;
4432;SDS011;2229;48.708;9.706;2023-06-10T11:23:24;3.43;;;2.23;;
4432;SDS011;2229;48.708;9.706;2023-06-10T11:26:09;3.37;;;2.03;;
4432;SDS011;2229;48.708;9.706;2023-06-10T11:28:40;2.60;;;1.50;;
4432;SDS011;2229;48.708;9.706;2023-06-10T11:31:10;2.83;;;1.40;;
4432;SDS011;2229;48.708;9.706;2023-06-10T11:33:46;2.37;;;1.60;;
4432;SDS011;2229;48.708;9.706;2023-06-10T11:36:14;2.77;;;1.17;;
4432;SDS011;2229;48.708;9.706;2023-06-10T11:38:41;1.83;;;1.30;;
4432;SDS011;2229;48.708;9.706;2023-06-10T11:41:10;2.23;;;1.60;;
4432;SDS011;2229;48.708;9.706;2023-06-10T11:43:38;2.40;;;1.40;;
4432;SDS011;2229;48.708;9.706;2023-06-10T11:46:12;2.63;;;1.13;;
4432;SDS011;2229;48.708;9.706;2023-06-10T11:48:47;2.10;;;1.53;;
4432;SDS011;2229;48.708;9.706;2023-06-10T11:51:16;3.80;;;1.40;;
4432;SDS011;2229;48.708;9.706;2023-06-10T11:53:43;2.57;;;1.50;;
4432;SDS011;2229;48.708;9.706;2023-06-10T11:56:11;2.20;;;1.60;;
4432;SDS011;2229;48.708;9.706;2023-06-10T11:58:39;2.20;;;1.50;;
4432;SDS011;2229;48.708;9.706;2023-06-10T12:01:13;3.00;;;1.57;;
4432;SDS011;2229;48.708;9.706;2023-06-10T12:03:47;2.93;;;1.93;;
4432;SDS011;2229;48.708;9.706;2023-06-10T12:06:22;2.00;;;1.23;;
4432;SDS011;2229;48.708;9.706;2023-06-10T12:08:49;2.33;;;1.60;;
4432;SDS011;2229;48.708;9.706;2023-06-10T12:11:17;2.40;;;1.27;;
4432;SDS011;2229;48.708;9.706;2023-06-10T12:13:47;2.50;;;1.83;;
4432;SDS011;2229;48.708;9.706;2023-06-10T12:16:16;2.63;;;1.77;;
4432;SDS011;2229;48.708;9.706;2023-06-10T12:18:44;1.80;;;1.00;;
4432;SDS011;2229;48.708;9.706;2023-06-10T12:21:16;2.70;;;1.77;;
4432;SDS011;2229;48.708;9.706;2023-06-10T12:26:36;2.70;;;1.63;;
4432;SDS011;2229;48.708;9.706;2023-06-10T12:29:20;2.27;;;1.57;;
4432;SDS011;2229;48.708;9.706;2023-06-10T12:31:58;2.10;;;1.30;;
4432;SDS011;2229;48.708;9.706;2023-06-10T12:34:31;2.50;;;1.73;;
4432;SDS011;2229;48.708;9.706;2023-06-10T12:37:01;2.57;;;1.80;;
4432;SDS011;2229;48.708;9.706;2023-06-10T12:39:29;2.20;;;1.57;;
4432;SDS011;2229;48.708;9.706;2023-06-10T12:41:57;2.20;;;1.50;;
4432;SDS011;2229;48.708;9.706;2023-06-10T12:44:28;2.43;;;1.33;;
4432;SDS011;2229;48.708;9.706;2023-06-10T12:46:57;1.93;;;1.10;;
4432;SDS011;2229;48.708;9.706;2023-06-10T12:49:25;2.43;;;1.40;;
4432;SDS011;2229;48.708;9.706;2023-06-10T12:51:52;3.60;;;1.33;;
4432;SDS011;2229;48.708;9.706;2023-06-10T12:54:20;2.87;;;1.70;;
4432;SDS011;2229;48.708;9.706;2023-06-10T12:56:47;2.70;;;1.80;;
4432;SDS011;2229;48.708;9.706;2023-06-10T12:59:15;2.13;;;1.40;;
4432;SDS011;2229;48.708;9.706;2023-06-10T13:01:43;2.37;;;1.53;;
4432;SDS011;2229;48.708;9.706;2023-06-10T13:04:12;3.07;;;1.90;;
4432;SDS011;2229;48.708;9.706;2023-06-10T13:06:39;4.10;;;1.60;;
4432;SDS011;2229;48.708;9.706;2023-06-10T13:09:06;2.63;;;1.50;;
4432;SDS011;2229;48.708;9.706;2023-06-10T13:11:33;2.60;;;1.40;;
4432;SDS011;2229;48.708;9.706;2023-06-10T13:14:01;3.00;;;1.43;;
4432;SDS011;2229;48.708;9.706;2023-06-10T13:16:30;2.53;;;1.70;;
4432;SDS011;2229;48.708;9.706;2023-06-10T13:18:58;3.40;;;1.50;;
4432;SDS011;2229;48.708;9.706;2023-06-10T13:21:29;7.30;;;1.80;;
4432;SDS011;2229;48.708;9.706;2023-06-10T13:23:57;2.57;;;1.60;;
4432;SDS011;2229;48.708;9.706;2023-06-10T13:26:24;4.40;;;1.80;;
4432;SDS011;2229;48.708;9.706;2023-06-10T13:28:51;1.97;;;1.23;;
4432;SDS011;2229;48.708;9.706;2023-06-10T13:31:19;3.67;;;1.97;;
4432;SDS011;2229;48.708;9.706;2023-06-10T13:33:46;2.50;;;1.50;;
4432;SDS011;2229;48.708;9.706;2023-06-10T13:36:13;1.87;;;1.33;;
4432;SDS011;2229;48.708;9.706;2023-06-10T13:38:42;2.00;;;1.37;;
4432;SDS011;2229;48.708;9.706;2023-06-10T13:41:09;2.00;;;1.50;;
4432;SDS011;2229;48.708;9.706;2023-06-10T13:43:37;2.80;;;1.50;;
4432;SDS011;2229;48.708;9.706;2023-06-10T13:46:06;2.37;;;1.70;;
4432;SDS011;2229;48.708;9.706;2023-06-10T13:48:33;2.00;;;1.40;;
4432;SDS011;2229;48.708;9.706;2023-06-10T13:51:00;3.23;;;1.70;;
4432;SDS011;2229;48.708;9.706;2023-06-10T13:53:28;2.47;;;1.60;;
4432;SDS011;2229;48.708;9.706;2023-06-10T13:55:56;2.07;;;1.43;;
4432;SDS011;2229;48.708;9.706;2023-06-10T13:58:24;2.60;;;1.43;;
4432;SDS011;2229;48.708;9.706;2023-06-10T14:00:51;3.50;;;2.00;;
4432;SDS011;2229;48.708;9.706;2023-06-10T14:03:19;2.83;;;1.50;;
4432;SDS011;2229;48.708;9.706;2023-06-10T14:05:46;2.90;;;1.80;;
4432;SDS011;2229;48.708;9.706;2023-06-10T14:08:13;6.63;;;1.53;;
4432;SDS011;2229;48.708;9.706;2023-06-10T14:10:41;3.60;;;2.27;;
4432;SDS011;2229;48.708;9.706;2023-06-10T14:13:09;2.17;;;1.57;;
4432;SDS011;2229;48.708;9.706;2023-06-10T14:15:36;4.40;;;1.93;;
4432;SDS011;2229;48.708;9.706;2023-06-10T14:18:04;3.03;;;1.50;;
4432;SDS011;2229;48.708;9.706;2023-06-10T14:20:32;2.53;;;1.50;;
4432;SDS011;2229;48.708;9.706;2023-06-10T14:23:00;2.30;;;1.83;;
4432;SDS011;2229;48.708;9.706;2023-06-10T14:25:28;4.23;;;1.30;;
4432;SDS011;2229;48.708;9.706;2023-06-10T14:27:56;2.13;;;1.43;;
4432;SDS011;2229;48.708;9.706;2023-06-10T14:30:25;2.13;;;1.30;;
4432;SDS011;2229;48.708;9.706;2023-06-10T14:32:52;3.97;;;2.37;;
4432;SDS011;2229;48.708;9.706;2023-06-10T14:35:23;4.47;;;2.10;;
4432;SDS011;2229;48.708;9.706;2023-06-10T14:37:51;2.40;;;1.40;;
4432;SDS011;2229;48.708;9.706;2023-06-10T14:40:18;2.53;;;1.70;;
4432;SDS011;2229;48.708;9.706;2023-06-10T14:42:46;4.23;;;1.57;;
4432;SDS011;2229;48.708;9.706;2023-06-10T14:45:13;3.10;;;1.67;;
4432;SDS011;2229;48.708;9.706;2023-06-10T14:47:43;2.83;;;1.60;;
4432;SDS011;2229;48.708;9.706;2023-06-10T14:50:12;2.47;;;1.80;;
4432;SDS011;2229;48.708;9.706;2023-06-10T14:52:40;1.97;;;1.30;;
4432;SDS011;2229;48.708;9.706;2023-06-10T14:55:07;3.27;;;1.40;;
4432;SDS011;2229;48.708;9.706;2023-06-10T14:57:36;2.60;;;1.50;;
4432;SDS011;2229;48.708;9.706;2023-06-10T15:00:10;4.10;;;1.90;;
4432;SDS011;2229;48.708;9.706;2023-06-10T15:02:48;2.23;;;1.57;;
4432;SDS011;2229;48.708;9.706;2023-06-10T15:05:15;3.20;;;1.50;;
4432;SDS011;2229;48.708;9.706;2023-06-10T15:07:44;2.90;;;2.00;;
4432;SDS011;2229;48.708;9.706;2023-06-10T15:10:12;2.77;;;1.40;;
4432;SDS011;2229;48.708;9.706;2023-06-10T15:12:39;4.80;;;2.13;;
4432;SDS011;2229;48.708;9.706;2023-06-10T15:15:07;2.07;;;1.40;;
4432;SDS011;2229;48.708;9.706;2023-06-10T15:17:34;1.80;;;1.00;;
4432;SDS011;2229;48.708;9.706;2023-06-10T15:20:03;2.97;;;2.30;;
4432;SDS011;2229;48.708;9.706;2023-06-10T15:22:32;2.30;;;1.40;;
4432;SDS011;2229;48.708;9.706;2023-06-10T15:25:00;4.30;;;1.20;;
4432;SDS011;2229;48.708;9.706;2023-06-10T15:27:27;3.20;;;1.60;;
4432;SDS011;2229;48.708;9.706;2023-06-10T15:29:56;2.00;;;1.27;;
4432;SDS011;2229;48.708;9.706;2023-06-10T15:32:23;3.03;;;1.27;;